DAH1084 DAOO-LFPG
Flight info
| Callsign | DAH1084 |
|---|---|
| Flight time | N/A |
| Altitude | 36000 |
| Route | SID74 HAMRA DCT IZA DCT OKITI DCT GODOX DCT EPAMA DCT MARTA DCT EBROX DCT LATRO DCT OLOXO DCT OKABI DCT TOU DCT POI/N0441F300 DCT PEPAX UT182 KEPER |
| Aircraft | B738/M-SDE2E3FGHIRWXY/LB1 |
Departure
| Time | 2026-04-25 15:43 |
|---|---|
| Airport | Oran Es-Sénia (Ahmed Ben Bella) International Airport (DAOO) |
Arrival
| Time | N/A |
|---|---|
| Airport | Charles de Gaulle International Airport (LFPG) |
| Time | Latitude | Longitude | Altitude | Speed | Heading |
|---|---|---|---|---|---|
| 2026-04-25 15:11 | 35.61947 | -0.61110 | 309 ft | 0 kts | 146° |
| 2026-04-25 15:33 | 35.61950 | -0.61112 | 309 ft | 2 kts | 146° |
| 2026-04-25 15:34 | 35.61965 | -0.61125 | 308 ft | 3 kts | 141° |
| 2026-04-25 15:34 | 35.61981 | -0.61141 | 308 ft | 3 kts | 134° |
| 2026-04-25 15:34 | 35.61994 | -0.61160 | 309 ft | 3 kts | 122° |
| 2026-04-25 15:34 | 35.62000 | -0.61173 | 308 ft | 3 kts | 105° |
| 2026-04-25 15:35 | 35.62001 | -0.61197 | 307 ft | 1 kts | 59° |
| 2026-04-25 15:37 | 35.62010 | -0.61178 | 308 ft | 6 kts | 59° |
| 2026-04-25 15:37 | 35.62036 | -0.61117 | 309 ft | 9 kts | 66° |
| 2026-04-25 15:37 | 35.62061 | -0.61043 | 307 ft | 9 kts | 67° |
| 2026-04-25 15:37 | 35.62106 | -0.60999 | 309 ft | 9 kts | 4° |
| 2026-04-25 15:38 | 35.62166 | -0.60999 | 309 ft | 9 kts | 25° |
| 2026-04-25 15:38 | 35.62198 | -0.60939 | 309 ft | 8 kts | 66° |
| 2026-04-25 15:38 | 35.62219 | -0.60873 | 308 ft | 8 kts | 67° |
| 2026-04-25 15:38 | 35.62243 | -0.60811 | 309 ft | 8 kts | 56° |
| 2026-04-25 15:39 | 35.62290 | -0.60786 | 309 ft | 8 kts | 356° |
| 2026-04-25 15:39 | 35.62333 | -0.60821 | 309 ft | 7 kts | 307° |
| 2026-04-25 15:39 | 35.62360 | -0.60873 | 309 ft | 6 kts | 301° |
| 2026-04-25 15:39 | 35.62375 | -0.60905 | 309 ft | 3 kts | 300° |
| 2026-04-25 15:40 | 35.62384 | -0.60925 | 309 ft | 1 kts | 300° |
| 2026-04-25 15:40 | 35.62385 | -0.60926 | 309 ft | 1 kts | 300° |
| 2026-04-25 15:40 | 35.62385 | -0.60927 | 309 ft | 0 kts | 300° |
| 2026-04-25 15:41 | 35.62394 | -0.60946 | 310 ft | 7 kts | 300° |
| 2026-04-25 15:41 | 35.62420 | -0.60999 | 311 ft | 7 kts | 303° |
| 2026-04-25 15:41 | 35.62440 | -0.61023 | 311 ft | 5 kts | 328° |
| 2026-04-25 15:41 | 35.62452 | -0.61047 | 311 ft | 5 kts | 274° |
| 2026-04-25 15:42 | 35.62445 | -0.61075 | 312 ft | 5 kts | 249° |
| 2026-04-25 15:42 | 35.62406 | -0.61191 | 312 ft | 35 kts | 248° |
| 2026-04-25 15:42 | 35.62217 | -0.61743 | 308 ft | 104 kts | 247° |
| 2026-04-25 15:42 | 35.61718 | -0.63223 | 365 ft | 170 kts | 250° |
| 2026-04-25 15:43 | 35.61259 | -0.64530 | 998 ft | 170 kts | 254° |
| 2026-04-25 15:43 | 35.61205 | -0.65979 | 1534 ft | 174 kts | 292° |